createdAt,value
2017-08-20T00:00:22.992Z,0
2017-08-20T00:01:22.977Z,0
2017-08-20T00:02:23.027Z,0
2017-08-20T00:03:22.986Z,0
2017-08-20T00:04:23.035Z,0
2017-08-20T00:05:23.015Z,0
2017-08-20T00:06:23.062Z,0
2017-08-20T00:07:23.052Z,0
2017-08-20T00:08:22.989Z,0
2017-08-20T00:09:23.056Z,0
2017-08-20T00:10:23.058Z,0
2017-08-20T00:11:23.027Z,0
2017-08-20T00:12:22.970Z,0
2017-08-20T00:13:23.059Z,0
2017-08-20T00:14:22.999Z,0
2017-08-20T00:15:22.969Z,0
2017-08-20T00:16:22.989Z,0
2017-08-20T00:17:22.971Z,0
2017-08-20T00:18:22.971Z,0
2017-08-20T00:19:22.996Z,0
2017-08-20T00:20:22.946Z,0
2017-08-20T00:21:22.967Z,0
2017-08-20T00:22:22.942Z,0
2017-08-20T00:23:23.003Z,0
2017-08-20T00:24:22.988Z,0
2017-08-20T00:25:22.944Z,0
2017-08-20T00:26:23.083Z,0
2017-08-20T00:27:22.978Z,0
2017-08-20T00:28:23.001Z,0
2017-08-20T00:29:23.040Z,0
2017-08-20T00:30:23.016Z,0
2017-08-20T00:31:23.027Z,0
2017-08-20T00:32:23.000Z,0
2017-08-20T00:33:23.003Z,0
2017-08-20T00:34:23.018Z,0
2017-08-20T00:35:23.002Z,0
2017-08-20T00:36:22.980Z,0
2017-08-20T00:37:22.980Z,0
2017-08-20T00:38:23.018Z,0
2017-08-20T00:39:23.041Z,0
2017-08-20T00:40:23.034Z,0
2017-08-20T00:41:23.005Z,0
2017-08-20T00:42:23.038Z,0
2017-08-20T00:43:23.013Z,0
2017-08-20T00:44:23.076Z,0
2017-08-20T00:45:23.021Z,0
2017-08-20T00:46:23.079Z,0
2017-08-20T00:47:23.065Z,0
2017-08-20T00:48:23.042Z,0
2017-08-20T00:49:23.063Z,0
2017-08-20T00:50:23.012Z,0
2017-08-20T00:51:23.063Z,0
2017-08-20T00:52:23.081Z,0
2017-08-20T00:53:23.011Z,0
2017-08-20T00:54:23.028Z,0
2017-08-20T00:55:23.061Z,0
2017-08-20T00:56:23.083Z,0
2017-08-20T00:57:22.993Z,0
2017-08-20T00:58:23.087Z,0
2017-08-20T00:59:23.085Z,0
2017-08-20T01:00:23.061Z,0
2017-08-20T01:01:22.998Z,0
2017-08-20T01:02:23.090Z,0
2017-08-20T01:03:23.056Z,0
2017-08-20T01:04:22.996Z,0
2017-08-20T01:05:23.091Z,0
2017-08-20T01:06:22.994Z,0
2017-08-20T01:07:23.037Z,0
2017-08-20T01:08:23.003Z,0
2017-08-20T01:09:22.995Z,0
2017-08-20T01:10:23.004Z,0
2017-08-20T01:11:23.073Z,0
2017-08-20T01:12:23.000Z,0
2017-08-20T01:13:23.018Z,0
2017-08-20T01:14:23.026Z,0
2017-08-20T01:15:23.044Z,0
2017-08-20T01:16:23.027Z,0
2017-08-20T01:17:23.036Z,0
2017-08-20T01:18:23.029Z,0
2017-08-20T01:19:23.005Z,0
2017-08-20T01:20:23.110Z,0
2017-08-20T01:21:23.007Z,0
2017-08-20T01:22:23.083Z,0
2017-08-20T01:23:23.046Z,0
2017-08-20T01:24:23.101Z,0
2017-08-20T01:25:23.063Z,0
2017-08-20T01:26:23.065Z,0
2017-08-20T01:27:23.034Z,0
2017-08-20T01:28:23.040Z,0
2017-08-20T01:29:23.068Z,0
2017-08-20T01:30:23.040Z,0
2017-08-20T01:31:23.072Z,0
2017-08-20T01:32:23.075Z,0
2017-08-20T01:33:23.067Z,0
2017-08-20T01:34:23.068Z,0
2017-08-20T01:35:23.037Z,0
2017-08-20T01:36:23.016Z,0
2017-08-20T01:37:23.015Z,0
2017-08-20T01:38:23.077Z,0
2017-08-20T01:39:23.077Z,0
2017-08-20T01:40:23.010Z,0
2017-08-20T01:41:23.009Z,0
2017-08-20T01:42:23.074Z,0
2017-08-20T01:43:23.007Z,0
2017-08-20T01:44:23.040Z,0
2017-08-20T01:45:23.037Z,0
2017-08-20T01:46:23.042Z,0
2017-08-20T01:47:23.038Z,0
2017-08-20T01:48:23.023Z,0
2017-08-20T01:49:23.109Z,0
2017-08-20T01:50:23.120Z,0
2017-08-20T01:51:23.078Z,0
2017-08-20T01:52:23.030Z,0
2017-08-20T01:53:23.057Z,0
2017-08-20T01:54:23.084Z,0
2017-08-20T01:55:23.113Z,0
2017-08-20T01:56:23.031Z,0
2017-08-20T01:57:23.057Z,0
2017-08-20T01:58:23.027Z,0
2017-08-20T01:59:23.163Z,0
2017-08-20T02:00:23.056Z,0
2017-08-20T02:01:23.081Z,0
2017-08-20T02:02:23.065Z,0
2017-08-20T02:03:23.064Z,0
2017-08-20T02:04:23.160Z,0
2017-08-20T02:05:23.036Z,0
2017-08-20T02:06:23.068Z,0
2017-08-20T02:07:23.101Z,0
2017-08-20T02:08:23.123Z,0
2017-08-20T02:09:23.067Z,0
2017-08-20T02:10:23.128Z,0
2017-08-20T02:11:23.040Z,0
2017-08-20T02:12:23.068Z,0
2017-08-20T02:13:23.062Z,0
2017-08-20T02:14:23.074Z,0
2017-08-20T02:15:23.071Z,0
2017-08-20T02:16:23.106Z,0
2017-08-20T02:17:23.066Z,0
2017-08-20T02:18:23.036Z,0
2017-08-20T02:19:23.040Z,0
2017-08-20T02:20:23.064Z,0
2017-08-20T02:21:23.059Z,0
2017-08-20T02:22:23.038Z,0
2017-08-20T02:23:23.035Z,0
2017-08-20T02:24:23.066Z,0
2017-08-20T02:25:23.038Z,0
2017-08-20T02:26:23.220Z,0
2017-08-20T02:27:23.098Z,0
2017-08-20T02:28:23.066Z,0
2017-08-20T02:29:23.068Z,0
2017-08-20T02:30:23.067Z,0
2017-08-20T02:31:23.079Z,0
2017-08-20T02:32:23.104Z,0
2017-08-20T02:33:23.042Z,0
2017-08-20T02:34:23.071Z,0
2017-08-20T02:35:23.102Z,0
2017-08-20T02:36:23.071Z,0
2017-08-20T02:37:23.103Z,0
2017-08-20T02:38:23.086Z,0
2017-08-20T02:39:23.145Z,0
2017-08-20T02:40:23.088Z,0
2017-08-20T02:41:23.079Z,0
2017-08-20T02:42:23.109Z,0
2017-08-20T02:43:23.057Z,0
2017-08-20T02:44:23.116Z,0
2017-08-20T02:45:23.121Z,0
2017-08-20T02:46:23.119Z,0
2017-08-20T02:47:23.095Z,0
2017-08-20T02:48:23.058Z,0
2017-08-20T02:49:23.126Z,0
2017-08-20T02:50:23.155Z,0
2017-08-20T02:51:23.059Z,0
2017-08-20T02:52:23.127Z,0
2017-08-20T02:53:23.065Z,0
2017-08-20T02:54:23.100Z,0
2017-08-20T02:55:23.148Z,0
2017-08-20T02:56:23.150Z,0
2017-08-20T02:57:23.121Z,0
2017-08-20T02:58:23.036Z,0
2017-08-20T02:59:23.091Z,0
2017-08-20T03:00:23.129Z,0
2017-08-20T03:01:23.084Z,0
2017-08-20T03:02:23.016Z,0
2017-08-20T03:03:23.032Z,0
2017-08-20T03:04:23.088Z,0
2017-08-20T03:05:23.152Z,0
2017-08-20T03:06:23.043Z,0
2017-08-20T03:07:23.064Z,0
2017-08-20T03:08:23.091Z,0
2017-08-20T03:09:23.123Z,0
2017-08-20T03:10:23.129Z,0
2017-08-20T03:11:23.127Z,0
2017-08-20T03:12:23.347Z,0
2017-08-20T03:13:23.064Z,0
2017-08-20T03:14:23.071Z,0
2017-08-20T03:15:23.095Z,0
2017-08-20T03:16:23.068Z,0
2017-08-20T03:17:23.071Z,0
2017-08-20T03:18:23.083Z,0
2017-08-20T03:19:23.150Z,0
2017-08-20T03:20:23.150Z,0
2017-08-20T03:21:23.117Z,0
2017-08-20T03:22:23.136Z,0
2017-08-20T03:23:23.102Z,0
2017-08-20T03:24:23.101Z,0
2017-08-20T03:25:23.143Z,0
2017-08-20T03:26:23.107Z,0
2017-08-20T03:27:23.084Z,0
2017-08-20T03:28:23.148Z,0
2017-08-20T03:29:23.081Z,0
2017-08-20T03:30:23.084Z,0
2017-08-20T03:31:23.145Z,0
2017-08-20T03:32:23.153Z,0
2017-08-20T03:33:23.179Z,0
2017-08-20T03:34:23.089Z,0
2017-08-20T03:35:23.123Z,0
2017-08-20T03:36:23.087Z,0
2017-08-20T03:37:23.175Z,0
2017-08-20T03:38:23.081Z,0
2017-08-20T03:39:23.086Z,0
2017-08-20T03:40:23.110Z,0
2017-08-20T03:41:23.098Z,0
2017-08-20T03:42:23.148Z,0
2017-08-20T03:43:23.090Z,0
2017-08-20T03:44:23.069Z,0
2017-08-20T03:45:23.243Z,0
2017-08-20T03:46:23.095Z,0
2017-08-20T03:47:23.097Z,0
2017-08-20T03:48:23.116Z,0
2017-08-20T03:49:23.137Z,0
2017-08-20T03:50:23.111Z,0
2017-08-20T03:51:23.072Z,0
2017-08-20T03:52:23.104Z,0
2017-08-20T03:53:23.114Z,0
2017-08-20T03:54:23.101Z,0
2017-08-20T03:55:23.160Z,0
2017-08-20T03:56:23.072Z,0
2017-08-20T03:57:23.100Z,0
2017-08-20T03:58:23.078Z,0
2017-08-20T03:59:23.187Z,0
2017-08-20T04:00:23.158Z,0
2017-08-20T04:01:23.152Z,0
2017-08-20T04:02:23.174Z,0
2017-08-20T04:03:23.127Z,0
2017-08-20T04:04:23.160Z,0
2017-08-20T04:05:23.197Z,0
2017-08-20T04:06:23.163Z,0
2017-08-20T04:07:23.141Z,0
2017-08-20T04:08:23.135Z,0
2017-08-20T04:09:23.116Z,0
2017-08-20T04:10:23.171Z,0
2017-08-20T04:11:23.201Z,0
2017-08-20T04:12:23.106Z,0
2017-08-20T04:13:23.199Z,0
2017-08-20T04:14:23.168Z,0
2017-08-20T04:15:23.144Z,0
2017-08-20T04:16:23.167Z,0
2017-08-20T04:17:23.164Z,0
2017-08-20T04:18:23.135Z,0
2017-08-20T04:19:23.136Z,0
2017-08-20T04:20:23.168Z,0
2017-08-20T04:21:23.137Z,0
2017-08-20T04:22:23.176Z,0
2017-08-20T04:23:23.135Z,0
2017-08-20T04:24:23.168Z,0
2017-08-20T04:25:23.137Z,0
2017-08-20T04:26:23.141Z,0
2017-08-20T04:27:23.110Z,0
2017-08-20T04:28:23.173Z,0
2017-08-20T04:29:23.117Z,0
2017-08-20T04:30:23.116Z,0
2017-08-20T04:31:23.192Z,0
2017-08-20T04:32:23.123Z,0
2017-08-20T04:33:23.123Z,0
2017-08-20T04:34:23.120Z,0
2017-08-20T04:35:23.156Z,0
2017-08-20T04:36:23.218Z,0
2017-08-20T04:37:23.156Z,0
2017-08-20T04:38:23.157Z,0
2017-08-20T04:39:23.063Z,0
2017-08-20T04:40:23.172Z,0
2017-08-20T04:41:23.119Z,0
2017-08-20T04:42:23.101Z,0
2017-08-20T04:43:23.124Z,0
2017-08-20T04:44:23.110Z,0
2017-08-20T04:45:23.146Z,0
2017-08-20T04:46:23.068Z,0
2017-08-20T04:47:23.105Z,0
2017-08-20T04:48:23.064Z,0
2017-08-20T04:49:23.185Z,0
2017-08-20T04:50:23.160Z,0
2017-08-20T04:51:23.129Z,0
2017-08-20T04:52:23.203Z,16
2017-08-20T04:53:23.201Z,21
2017-08-20T04:54:23.194Z,26
2017-08-20T04:55:23.163Z,31
2017-08-20T04:56:23.193Z,35
2017-08-20T04:57:23.164Z,38
2017-08-20T04:58:23.170Z,42
2017-08-20T04:59:23.108Z,42
2017-08-20T05:00:23.108Z,44
2017-08-20T05:01:23.108Z,45
2017-08-20T05:02:23.145Z,48
2017-08-20T05:03:23.130Z,48
2017-08-20T05:04:23.128Z,48
2017-08-20T05:05:23.157Z,48
2017-08-20T05:06:23.155Z,49
2017-08-20T05:07:23.171Z,50
2017-08-20T05:08:23.145Z,50
2017-08-20T05:09:23.176Z,50
2017-08-20T05:10:23.143Z,49
2017-08-20T05:11:23.198Z,48
2017-08-20T05:12:23.203Z,47
2017-08-20T05:13:23.232Z,45
2017-08-20T05:14:23.200Z,44
2017-08-20T05:15:23.181Z,45
2017-08-20T05:16:23.200Z,45
2017-08-20T05:17:23.217Z,43
2017-08-20T05:18:23.183Z,44
2017-08-20T05:19:23.141Z,43
2017-08-20T05:20:23.164Z,43
2017-08-20T05:21:23.208Z,43
2017-08-20T05:22:23.167Z,43
2017-08-20T05:23:23.166Z,44
2017-08-20T05:24:23.173Z,43
2017-08-20T05:25:23.173Z,45
2017-08-20T05:26:23.177Z,46
2017-08-20T05:27:23.214Z,46
2017-08-20T05:28:23.171Z,46
2017-08-20T05:29:23.152Z,46
2017-08-20T05:30:23.155Z,46
2017-08-20T05:31:23.248Z,47
2017-08-20T05:32:23.241Z,46
2017-08-20T05:33:23.209Z,46
2017-08-20T05:34:23.170Z,46
2017-08-20T05:35:23.164Z,44
2017-08-20T05:36:23.222Z,45
2017-08-20T05:37:23.250Z,45
2017-08-20T05:38:23.227Z,43
2017-08-20T05:39:23.230Z,42
2017-08-20T05:40:23.271Z,41
2017-08-20T05:41:23.219Z,42
2017-08-20T05:42:23.217Z,42
2017-08-20T05:43:23.279Z,45
2017-08-20T05:44:23.248Z,49
2017-08-20T05:45:23.202Z,53
2017-08-20T05:46:23.200Z,56
2017-08-20T05:47:23.223Z,59
2017-08-20T05:48:23.283Z,62
2017-08-20T05:49:23.237Z,64
2017-08-20T05:50:23.219Z,68
2017-08-20T05:51:23.291Z,71
2017-08-20T05:52:23.289Z,74
2017-08-20T05:53:23.226Z,78
2017-08-20T05:54:23.249Z,83
2017-08-20T05:55:23.278Z,86
2017-08-20T05:56:23.333Z,89
2017-08-20T05:57:23.326Z,91
2017-08-20T05:58:23.293Z,93
2017-08-20T05:59:23.254Z,96
2017-08-20T06:00:23.223Z,97
2017-08-20T06:01:23.268Z,101
2017-08-20T06:02:23.239Z,100
2017-08-20T06:03:23.325Z,109
2017-08-20T06:04:23.247Z,111
2017-08-20T06:05:23.248Z,109
2017-08-20T06:06:23.251Z,107
2017-08-20T06:07:23.281Z,102
2017-08-20T06:08:23.282Z,102
2017-08-20T06:09:23.309Z,110
2017-08-20T06:10:23.295Z,114
2017-08-20T06:11:23.298Z,122
2017-08-20T06:12:23.292Z,126
2017-08-20T06:13:23.343Z,140
2017-08-20T06:14:23.254Z,148
2017-08-20T06:15:23.242Z,158
2017-08-20T06:16:23.229Z,164
2017-08-20T06:17:23.275Z,164
2017-08-20T06:18:23.307Z,163
2017-08-20T06:19:23.273Z,168
2017-08-20T06:20:23.305Z,172
2017-08-20T06:21:23.332Z,177
2017-08-20T06:22:23.301Z,175
2017-08-20T06:23:23.304Z,179
2017-08-20T06:24:23.279Z,180
2017-08-20T06:25:23.340Z,177
2017-08-20T06:26:23.303Z,180
2017-08-20T06:27:23.278Z,187
2017-08-20T06:28:23.281Z,198
2017-08-20T06:29:23.274Z,196
2017-08-20T06:30:23.335Z,189
2017-08-20T06:31:23.312Z,191
2017-08-20T06:32:23.306Z,194
2017-08-20T06:33:23.324Z,216
2017-08-20T06:34:23.280Z,229
2017-08-20T06:35:23.343Z,230
2017-08-20T06:36:23.277Z,222
2017-08-20T06:37:23.277Z,190
2017-08-20T06:38:23.276Z,78
2017-08-20T06:39:23.382Z,87
2017-08-20T06:40:23.314Z,110
2017-08-20T06:41:23.344Z,110
2017-08-20T06:42:23.366Z,111
2017-08-20T06:43:23.378Z,105
2017-08-20T06:44:23.293Z,112
2017-08-20T06:45:23.320Z,122
2017-08-20T06:46:23.296Z,122
2017-08-20T06:47:23.302Z,114
2017-08-20T06:48:23.385Z,117
2017-08-20T06:49:23.294Z,102
2017-08-20T06:50:23.296Z,152
2017-08-20T06:51:23.305Z,222
2017-08-20T06:52:23.275Z,252
2017-08-20T06:53:23.320Z,268
2017-08-20T06:54:23.253Z,263
2017-08-20T06:55:23.320Z,270
2017-08-20T06:56:23.322Z,278
2017-08-20T06:57:23.291Z,279
2017-08-20T06:58:23.311Z,287
2017-08-20T06:59:23.272Z,300
2017-08-20T07:00:23.302Z,348
2017-08-20T07:01:23.324Z,354
2017-08-20T07:02:23.314Z,386
2017-08-20T07:03:23.312Z,387
2017-08-20T07:04:23.320Z,385
2017-08-20T07:05:23.280Z,375
2017-08-20T07:06:23.282Z,372
2017-08-20T07:07:23.322Z,397
2017-08-20T07:08:23.341Z,416
2017-08-20T07:09:23.338Z,420
2017-08-20T07:10:23.373Z,444
2017-08-20T07:11:23.344Z,453
2017-08-20T07:12:23.364Z,458
2017-08-20T07:13:23.308Z,498
2017-08-20T07:14:23.405Z,523
2017-08-20T07:15:23.317Z,577
2017-08-20T07:16:23.376Z,602
2017-08-20T07:17:23.348Z,615
2017-08-20T07:18:23.348Z,621
2017-08-20T07:19:23.513Z,622
2017-08-20T07:20:23.371Z,609
2017-08-20T07:21:23.325Z,641
2017-08-20T07:22:23.381Z,632
2017-08-20T07:23:23.340Z,647
2017-08-20T07:24:23.406Z,656
2017-08-20T07:25:23.323Z,659
2017-08-20T07:26:23.334Z,624
2017-08-20T07:27:23.414Z,780
2017-08-20T07:28:23.372Z,736
2017-08-20T07:29:23.322Z,361
2017-08-20T07:30:23.351Z,286
2017-08-20T07:31:23.360Z,180
2017-08-20T07:32:23.417Z,144
2017-08-20T07:33:23.355Z,149
2017-08-20T07:34:23.394Z,174
2017-08-20T07:35:23.323Z,229
2017-08-20T07:36:23.413Z,262
2017-08-20T07:37:23.364Z,290
2017-08-20T07:38:23.421Z,230
2017-08-20T07:39:23.379Z,240
2017-08-20T07:40:23.330Z,270
2017-08-20T07:41:23.387Z,314
2017-08-20T07:42:23.413Z,407
2017-08-20T07:43:23.346Z,586
2017-08-20T07:44:23.328Z,353
2017-08-20T07:45:23.391Z,364
2017-08-20T07:46:23.381Z,416
2017-08-20T07:47:23.332Z,611
2017-08-20T07:48:23.333Z,391
2017-08-20T07:49:23.352Z,756
2017-08-20T07:50:23.321Z,370
2017-08-20T07:51:23.382Z,365
2017-08-20T07:52:23.353Z,434
2017-08-20T07:53:23.385Z,842
2017-08-20T07:54:23.322Z,415
2017-08-20T07:55:23.322Z,748
2017-08-20T07:56:23.327Z,268
2017-08-20T07:57:23.326Z,250
2017-08-20T07:58:23.324Z,308
2017-08-20T07:59:23.324Z,714
2017-08-20T08:00:23.369Z,437
2017-08-20T08:01:23.396Z,481
2017-08-20T08:02:23.360Z,338
2017-08-20T08:03:23.358Z,767
2017-08-20T08:04:23.328Z,767
2017-08-20T08:05:23.333Z,766
2017-08-20T08:06:23.364Z,766
2017-08-20T08:07:23.365Z,783
2017-08-20T08:08:23.401Z,786
2017-08-20T08:09:23.396Z,808
2017-08-20T08:11:23.356Z,798
2017-08-20T08:12:23.305Z,794
2017-08-20T08:13:23.358Z,792
2017-08-20T08:14:23.341Z,791
2017-08-20T08:15:23.381Z,748
2017-08-20T08:16:23.320Z,776
2017-08-20T08:17:23.362Z,776
2017-08-20T08:18:23.395Z,751
2017-08-20T08:19:23.309Z,753
2017-08-20T08:20:23.354Z,770
2017-08-20T08:21:23.381Z,759
2017-08-20T08:22:23.383Z,756
2017-08-20T08:23:23.347Z,775
2017-08-20T08:24:23.424Z,748
2017-08-20T08:25:23.414Z,751
2017-08-20T08:26:23.354Z,409
2017-08-20T08:27:23.354Z,468
2017-08-20T08:28:23.355Z,785
2017-08-20T08:29:23.353Z,761
2017-08-20T08:30:23.396Z,795
2017-08-20T08:31:23.353Z,794
2017-08-20T08:32:23.488Z,604
2017-08-20T08:33:23.416Z,598
2017-08-20T08:34:23.358Z,794
2017-08-20T08:35:23.420Z,817
2017-08-20T08:36:23.362Z,815
2017-08-20T08:37:23.354Z,452
2017-08-20T08:38:23.398Z,345
2017-08-20T08:39:23.381Z,631
2017-08-20T08:40:23.356Z,534
2017-08-20T08:41:23.368Z,488
2017-08-20T08:42:23.335Z,422
2017-08-20T08:43:23.339Z,392
2017-08-20T08:44:23.360Z,611
2017-08-20T08:45:23.377Z,539
2017-08-20T08:46:23.341Z,785
2017-08-20T08:47:23.339Z,608
2017-08-20T08:48:23.445Z,572
2017-08-20T08:49:23.396Z,755
2017-08-20T08:50:23.400Z,664
2017-08-20T08:51:23.429Z,580
2017-08-20T08:52:23.393Z,569
2017-08-20T08:53:23.374Z,789
2017-08-20T08:54:23.370Z,622
2017-08-20T08:55:23.367Z,677
2017-08-20T08:56:23.368Z,615
2017-08-20T08:57:23.512Z,602
2017-08-20T08:58:23.437Z,547
2017-08-20T08:59:23.397Z,584
2017-08-20T09:00:23.436Z,562
2017-08-20T09:01:23.377Z,431
2017-08-20T09:02:23.418Z,361
2017-08-20T09:03:23.375Z,372
2017-08-20T09:04:23.379Z,395
2017-08-20T09:05:23.443Z,413
2017-08-20T09:06:23.408Z,447
2017-08-20T09:07:23.434Z,474
2017-08-20T09:08:23.450Z,467
2017-08-20T09:09:23.403Z,497
2017-08-20T09:10:23.402Z,525
2017-08-20T09:11:23.474Z,600
2017-08-20T09:12:23.410Z,723
2017-08-20T09:13:23.412Z,547
2017-08-20T09:14:23.383Z,506
2017-08-20T09:15:23.415Z,527
2017-08-20T09:16:23.421Z,666
2017-08-20T09:17:23.442Z,668
2017-08-20T09:18:23.457Z,644
2017-08-20T09:19:23.407Z,779
2017-08-20T09:20:23.429Z,1077
2017-08-20T09:21:23.406Z,834
2017-08-20T09:22:23.377Z,751
2017-08-20T09:23:23.407Z,543
2017-08-20T09:24:23.375Z,561
2017-08-20T09:25:23.410Z,545
2017-08-20T09:26:23.378Z,438
2017-08-20T09:27:23.376Z,485
2017-08-20T09:28:23.412Z,742
2017-08-20T09:29:23.410Z,920
2017-08-20T09:30:23.394Z,802
2017-08-20T09:31:23.425Z,599
2017-08-20T09:32:23.388Z,647
2017-08-20T09:33:23.452Z,675
2017-08-20T09:34:23.430Z,692
2017-08-20T09:35:23.430Z,643
2017-08-20T09:36:23.458Z,691
2017-08-20T09:37:23.453Z,664
2017-08-20T09:38:23.402Z,628
2017-08-20T09:39:23.396Z,530
2017-08-20T09:40:23.427Z,582
2017-08-20T09:41:23.493Z,558
2017-08-20T09:42:23.469Z,526
2017-08-20T09:43:23.404Z,527
2017-08-20T09:44:23.461Z,535
2017-08-20T09:45:23.493Z,538
2017-08-20T09:46:23.491Z,524
2017-08-20T09:47:23.427Z,527
2017-08-20T09:48:23.433Z,544
2017-08-20T09:49:23.492Z,605
2017-08-20T09:50:23.461Z,593
2017-08-20T09:51:23.426Z,570
2017-08-20T09:52:23.462Z,548
2017-08-20T09:53:23.404Z,522
2017-08-20T09:54:23.413Z,514
2017-08-20T09:55:23.405Z,512
2017-08-20T09:56:23.437Z,517
2017-08-20T09:57:23.461Z,511
2017-08-20T09:58:23.441Z,509
2017-08-20T09:59:23.502Z,510
2017-08-20T10:00:23.393Z,513
2017-08-20T10:01:23.397Z,525
2017-08-20T10:02:23.429Z,526
2017-08-20T10:03:23.405Z,531
2017-08-20T10:04:23.429Z,534
2017-08-20T10:05:23.399Z,537
2017-08-20T10:06:23.431Z,519
2017-08-20T10:07:23.485Z,565
2017-08-20T10:08:23.465Z,766
2017-08-20T10:09:23.427Z,627
2017-08-20T10:10:23.413Z,900
2017-08-20T10:11:23.452Z,573
2017-08-20T10:12:23.507Z,461
2017-08-20T10:13:23.507Z,409
2017-08-20T10:14:23.416Z,345
2017-08-20T10:15:23.422Z,280
2017-08-20T10:16:23.442Z,255
2017-08-20T10:17:23.491Z,271
2017-08-20T10:18:23.453Z,300
2017-08-20T10:19:23.478Z,327
2017-08-20T10:20:23.409Z,350
2017-08-20T10:21:23.398Z,363
2017-08-20T10:22:23.403Z,364
2017-08-20T10:23:23.399Z,366
2017-08-20T10:24:23.415Z,360
2017-08-20T10:25:23.436Z,363
2017-08-20T10:26:23.399Z,394
2017-08-20T10:27:23.415Z,380
2017-08-20T10:28:23.469Z,375
2017-08-20T10:29:23.444Z,361
2017-08-20T10:30:23.491Z,350
2017-08-20T10:31:23.431Z,334
2017-08-20T10:32:23.489Z,322
2017-08-20T10:33:23.450Z,316
2017-08-20T10:34:23.430Z,323
2017-08-20T10:35:23.429Z,336
2017-08-20T10:36:23.506Z,356
2017-08-20T10:37:23.435Z,381
2017-08-20T10:38:23.463Z,422
2017-08-20T10:39:23.491Z,475
2017-08-20T10:40:23.453Z,682
2017-08-20T10:41:23.416Z,680
2017-08-20T10:42:23.459Z,538
2017-08-20T10:43:23.455Z,436
2017-08-20T10:44:23.422Z,407
2017-08-20T10:45:23.428Z,390
2017-08-20T10:46:23.454Z,379
2017-08-20T10:47:23.424Z,369
2017-08-20T10:48:23.423Z,359
2017-08-20T10:49:23.459Z,354
2017-08-20T10:50:23.476Z,359
2017-08-20T10:51:23.498Z,361
2017-08-20T10:52:23.530Z,364
2017-08-20T10:53:23.520Z,363
2017-08-20T10:54:23.496Z,369
2017-08-20T10:55:23.466Z,385
2017-08-20T10:56:23.498Z,400
2017-08-20T10:57:23.464Z,427
2017-08-20T10:58:23.475Z,588
2017-08-20T10:59:23.444Z,561
2017-08-20T11:00:23.509Z,851
2017-08-20T11:01:23.450Z,1285
2017-08-20T11:02:23.511Z,1173
2017-08-20T11:03:23.470Z,1267
2017-08-20T11:04:23.486Z,1264
2017-08-20T11:05:23.477Z,417
2017-08-20T11:06:23.454Z,393
2017-08-20T11:07:23.491Z,372
2017-08-20T11:08:23.521Z,360
2017-08-20T11:09:23.543Z,347
2017-08-20T11:10:23.461Z,340
2017-08-20T11:11:23.427Z,327
2017-08-20T11:12:23.458Z,322
2017-08-20T11:13:23.495Z,318
2017-08-20T11:14:23.450Z,316
2017-08-20T11:15:23.418Z,323
2017-08-20T11:16:23.448Z,326
2017-08-20T11:17:23.587Z,332
2017-08-20T11:18:23.504Z,332
2017-08-20T11:19:23.393Z,352
2017-08-20T11:20:23.460Z,361
2017-08-20T11:21:23.448Z,372
2017-08-20T11:22:23.629Z,375
2017-08-20T11:23:23.539Z,377
2017-08-20T11:24:23.514Z,382
2017-08-20T11:25:23.515Z,384
2017-08-20T11:26:23.491Z,395
2017-08-20T11:27:23.622Z,407
2017-08-20T11:28:23.481Z,427
2017-08-20T11:29:23.485Z,542
2017-08-20T11:30:23.513Z,457
2017-08-20T11:31:23.455Z,412
2017-08-20T11:32:23.455Z,380
2017-08-20T11:33:23.456Z,356
2017-08-20T11:34:23.513Z,341
2017-08-20T11:35:23.539Z,345
2017-08-20T11:36:23.517Z,366
2017-08-20T11:37:23.490Z,402
2017-08-20T11:38:23.497Z,466
2017-08-20T11:39:23.542Z,534
2017-08-20T11:40:23.523Z,505
2017-08-20T11:41:23.467Z,458
2017-08-20T11:42:23.558Z,1201
2017-08-20T11:43:23.555Z,431
2017-08-20T11:44:23.503Z,418
2017-08-20T11:45:23.562Z,429
2017-08-20T11:46:23.502Z,450
2017-08-20T11:47:23.533Z,466
2017-08-20T11:48:23.474Z,482
2017-08-20T11:49:23.541Z,503
2017-08-20T11:50:23.544Z,635
2017-08-20T11:51:23.496Z,578
2017-08-20T11:52:23.519Z,527
2017-08-20T11:53:23.624Z,544
2017-08-20T11:54:23.506Z,702
2017-08-20T11:55:23.496Z,529
2017-08-20T11:56:23.468Z,507
2017-08-20T11:57:23.452Z,497
2017-08-20T11:58:23.493Z,495
2017-08-20T11:59:23.450Z,496
2017-08-20T12:00:23.455Z,498
2017-08-20T12:01:23.474Z,506
2017-08-20T12:02:23.519Z,515
2017-08-20T12:03:23.571Z,524
2017-08-20T12:04:23.481Z,534
2017-08-20T12:05:23.482Z,632
2017-08-20T12:06:23.541Z,839
2017-08-20T12:07:23.561Z,624
2017-08-20T12:08:23.483Z,566
2017-08-20T12:09:23.519Z,572
2017-08-20T12:10:23.578Z,619
2017-08-20T12:11:23.480Z,612
2017-08-20T12:12:23.532Z,717
2017-08-20T12:13:23.449Z,576
2017-08-20T12:14:23.453Z,701
2017-08-20T12:15:23.465Z,752
2017-08-20T12:16:23.500Z,615
2017-08-20T12:17:23.425Z,660
2017-08-20T12:18:23.425Z,761
2017-08-20T12:19:23.536Z,758
2017-08-20T12:20:23.469Z,621
2017-08-20T12:21:23.588Z,627
2017-08-20T12:22:23.522Z,507
2017-08-20T12:23:23.494Z,490
2017-08-20T12:24:23.498Z,482
2017-08-20T12:25:23.586Z,443
2017-08-20T12:26:23.580Z,418
2017-08-20T12:27:23.546Z,407
2017-08-20T12:28:23.592Z,409
2017-08-20T12:29:23.627Z,413
2017-08-20T12:30:23.524Z,416
2017-08-20T12:31:23.521Z,421
2017-08-20T12:32:23.516Z,429
2017-08-20T12:33:23.470Z,436
2017-08-20T12:34:23.524Z,444
2017-08-20T12:35:23.476Z,457
2017-08-20T12:36:23.476Z,509
2017-08-20T12:37:23.533Z,886
2017-08-20T12:38:23.522Z,725
2017-08-20T12:39:23.496Z,1162
2017-08-20T12:40:23.498Z,1075
2017-08-20T12:41:23.594Z,1325
2017-08-20T12:42:23.528Z,835
2017-08-20T12:43:23.576Z,652
2017-08-20T12:44:23.564Z,513
2017-08-20T12:45:23.600Z,506
2017-08-20T12:46:23.558Z,528
2017-08-20T12:47:23.506Z,509
2017-08-20T12:48:23.546Z,506
2017-08-20T12:49:23.601Z,503
2017-08-20T12:50:23.508Z,491
2017-08-20T12:51:23.502Z,499
2017-08-20T12:52:23.526Z,513
2017-08-20T12:53:23.487Z,523
2017-08-20T12:54:23.530Z,508
2017-08-20T12:55:23.494Z,498
2017-08-20T12:56:23.494Z,491
2017-08-20T12:57:23.524Z,495
2017-08-20T12:58:23.473Z,534
2017-08-20T12:59:23.513Z,527
2017-08-20T13:00:23.503Z,516
2017-08-20T13:01:23.548Z,667
2017-08-20T13:02:23.538Z,514
2017-08-20T13:03:23.518Z,617
2017-08-20T13:04:23.517Z,554
2017-08-20T13:05:23.581Z,526
2017-08-20T13:06:23.574Z,541
2017-08-20T13:07:23.573Z,438
2017-08-20T13:08:23.556Z,310
2017-08-20T13:09:23.553Z,211
2017-08-20T13:10:23.523Z,153
2017-08-20T13:11:23.542Z,129
2017-08-20T13:12:23.546Z,127
2017-08-20T13:13:23.510Z,137
2017-08-20T13:14:23.544Z,148
2017-08-20T13:15:23.576Z,158
2017-08-20T13:16:23.554Z,173
2017-08-20T13:17:23.517Z,198
2017-08-20T13:18:23.549Z,226
2017-08-20T13:19:23.513Z,245
2017-08-20T13:20:23.551Z,255
2017-08-20T13:21:23.529Z,245
2017-08-20T13:22:23.525Z,235
2017-08-20T13:23:23.534Z,218
2017-08-20T13:24:23.571Z,207
2017-08-20T13:25:23.608Z,203
2017-08-20T13:26:23.561Z,193
2017-08-20T13:27:23.584Z,180
2017-08-20T13:28:23.532Z,167
2017-08-20T13:29:23.536Z,157
2017-08-20T13:30:23.533Z,150
2017-08-20T13:31:23.559Z,145
2017-08-20T13:32:23.549Z,144
2017-08-20T13:33:23.506Z,147
2017-08-20T13:34:23.569Z,156
2017-08-20T13:35:23.507Z,173
2017-08-20T13:36:23.508Z,198
2017-08-20T13:37:23.568Z,234
2017-08-20T13:38:23.546Z,286
2017-08-20T13:39:23.565Z,354
2017-08-20T13:40:23.506Z,474
2017-08-20T13:41:23.606Z,722
2017-08-20T13:42:23.571Z,603
2017-08-20T13:43:23.615Z,745
2017-08-20T13:44:23.544Z,692
2017-08-20T13:45:23.579Z,598
2017-08-20T13:46:23.542Z,651
2017-08-20T13:47:23.595Z,613
2017-08-20T13:48:23.633Z,876
2017-08-20T13:49:23.613Z,956
2017-08-20T13:50:23.580Z,545
2017-08-20T13:51:23.548Z,403
2017-08-20T13:52:23.601Z,354
2017-08-20T13:53:23.641Z,294
2017-08-20T13:54:23.641Z,249
2017-08-20T13:55:23.642Z,218
2017-08-20T13:56:23.548Z,192
2017-08-20T13:57:23.603Z,171
2017-08-20T13:58:23.617Z,150
2017-08-20T13:59:23.567Z,139
2017-08-20T14:00:23.553Z,163
2017-08-20T14:01:23.550Z,194
2017-08-20T14:02:23.642Z,226
2017-08-20T14:03:23.644Z,233
2017-08-20T14:04:23.609Z,222
2017-08-20T14:05:23.589Z,212
2017-08-20T14:06:23.560Z,212
2017-08-20T14:07:23.609Z,212
2017-08-20T14:08:23.596Z,210
2017-08-20T14:09:23.613Z,214